sensor_id;sensor_type;location;lat;lon;timestamp;P1;durP1;ratioP1;P2;durP2;ratioP2
8946;SDS011;4508;48.790;9.028;2023-02-26T00:00:43;3.75;;;3.35;;
8946;SDS011;4508;48.790;9.028;2023-02-26T00:03:10;4.05;;;3.65;;
8946;SDS011;4508;48.790;9.028;2023-02-26T00:05:36;3.75;;;2.97;;
8946;SDS011;4508;48.790;9.028;2023-02-26T00:08:03;3.80;;;3.10;;
8946;SDS011;4508;48.790;9.028;2023-02-26T00:10:30;3.97;;;3.10;;
8946;SDS011;4508;48.790;9.028;2023-02-26T00:12:57;3.70;;;3.30;;
8946;SDS011;4508;48.790;9.028;2023-02-26T00:15:26;3.08;;;2.75;;
8946;SDS011;4508;48.790;9.028;2023-02-26T00:17:54;3.13;;;2.83;;
8946;SDS011;4508;48.790;9.028;2023-02-26T00:20:25;3.35;;;2.83;;
8946;SDS011;4508;48.790;9.028;2023-02-26T00:22:53;3.20;;;2.90;;
8946;SDS011;4508;48.790;9.028;2023-02-26T00:25:20;4.47;;;3.67;;
8946;SDS011;4508;48.790;9.028;2023-02-26T00:27:46;3.75;;;2.90;;
8946;SDS011;4508;48.790;9.028;2023-02-26T00:30:14;3.87;;;2.80;;
8946;SDS011;4508;48.790;9.028;2023-02-26T00:32:42;3.40;;;3.03;;
8946;SDS011;4508;48.790;9.028;2023-02-26T00:35:11;3.30;;;3.03;;
8946;SDS011;4508;48.790;9.028;2023-02-26T00:40:35;3.50;;;2.67;;
8946;SDS011;4508;48.790;9.028;2023-02-26T00:43:06;2.90;;;2.70;;
8946;SDS011;4508;48.790;9.028;2023-02-26T00:45:35;3.40;;;2.90;;
8946;SDS011;4508;48.790;9.028;2023-02-26T00:48:14;3.47;;;3.17;;
8946;SDS011;4508;48.790;9.028;2023-02-26T00:50:50;4.25;;;3.20;;
8946;SDS011;4508;48.790;9.028;2023-02-26T00:53:25;3.78;;;2.80;;
8946;SDS011;4508;48.790;9.028;2023-02-26T00:55:54;3.25;;;2.95;;
8946;SDS011;4508;48.790;9.028;2023-02-26T00:58:20;3.47;;;3.17;;
8946;SDS011;4508;48.790;9.028;2023-02-26T01:00:47;3.85;;;3.50;;
8946;SDS011;4508;48.790;9.028;2023-02-26T01:03:15;3.10;;;2.80;;
8946;SDS011;4508;48.790;9.028;2023-02-26T01:05:42;3.58;;;3.10;;
8946;SDS011;4508;48.790;9.028;2023-02-26T01:08:11;3.03;;;2.83;;
8946;SDS011;4508;48.790;9.028;2023-02-26T01:10:44;3.22;;;2.92;;
8946;SDS011;4508;48.790;9.028;2023-02-26T01:13:12;3.05;;;2.80;;
8946;SDS011;4508;48.790;9.028;2023-02-26T01:15:39;3.70;;;3.00;;
8946;SDS011;4508;48.790;9.028;2023-02-26T01:18:13;3.53;;;3.17;;
8946;SDS011;4508;48.790;9.028;2023-02-26T01:20:47;4.28;;;3.22;;
8946;SDS011;4508;48.790;9.028;2023-02-26T01:23:18;4.45;;;3.50;;
8946;SDS011;4508;48.790;9.028;2023-02-26T01:25:51;3.40;;;3.05;;
8946;SDS011;4508;48.790;9.028;2023-02-26T01:28:21;3.40;;;3.10;;
8946;SDS011;4508;48.790;9.028;2023-02-26T01:30:49;3.67;;;3.28;;
8946;SDS011;4508;48.790;9.028;2023-02-26T01:33:18;3.58;;;3.22;;
8946;SDS011;4508;48.790;9.028;2023-02-26T01:35:51;3.42;;;2.85;;
8946;SDS011;4508;48.790;9.028;2023-02-26T01:38:22;3.30;;;3.00;;
8946;SDS011;4508;48.790;9.028;2023-02-26T01:43:56;4.00;;;3.30;;
8946;SDS011;4508;48.790;9.028;2023-02-26T01:46:32;3.72;;;3.30;;
8946;SDS011;4508;48.790;9.028;2023-02-26T01:49:03;4.13;;;2.95;;
8946;SDS011;4508;48.790;9.028;2023-02-26T01:51:40;3.17;;;2.90;;
8946;SDS011;4508;48.790;9.028;2023-02-26T01:54:14;3.63;;;3.20;;
8946;SDS011;4508;48.790;9.028;2023-02-26T01:56:42;3.60;;;3.30;;
8946;SDS011;4508;48.790;9.028;2023-02-26T01:59:10;4.65;;;3.10;;
8946;SDS011;4508;48.790;9.028;2023-02-26T02:01:40;3.53;;;3.22;;
8946;SDS011;4508;48.790;9.028;2023-02-26T02:04:09;3.40;;;3.10;;
8946;SDS011;4508;48.790;9.028;2023-02-26T02:06:37;4.53;;;3.25;;
8946;SDS011;4508;48.790;9.028;2023-02-26T02:09:04;4.43;;;2.83;;
8946;SDS011;4508;48.790;9.028;2023-02-26T02:11:33;3.97;;;3.00;;
8946;SDS011;4508;48.790;9.028;2023-02-26T02:14:07;4.32;;;3.33;;
8946;SDS011;4508;48.790;9.028;2023-02-26T02:16:40;3.03;;;2.77;;
8946;SDS011;4508;48.790;9.028;2023-02-26T02:19:22;3.30;;;3.00;;
8946;SDS011;4508;48.790;9.028;2023-02-26T02:22:02;3.63;;;3.20;;
8946;SDS011;4508;48.790;9.028;2023-02-26T02:24:42;3.70;;;3.40;;
8946;SDS011;4508;48.790;9.028;2023-02-26T02:27:18;4.15;;;3.75;;
8946;SDS011;4508;48.790;9.028;2023-02-26T02:29:52;4.10;;;3.20;;
8946;SDS011;4508;48.790;9.028;2023-02-26T02:32:30;3.40;;;3.10;;
8946;SDS011;4508;48.790;9.028;2023-02-26T02:35:02;4.90;;;3.47;;
8946;SDS011;4508;48.790;9.028;2023-02-26T02:37:36;3.70;;;3.40;;
8946;SDS011;4508;48.790;9.028;2023-02-26T02:40:09;3.53;;;3.00;;
8946;SDS011;4508;48.790;9.028;2023-02-26T02:42:41;3.42;;;3.13;;
8946;SDS011;4508;48.790;9.028;2023-02-26T02:45:13;4.00;;;3.60;;
8946;SDS011;4508;48.790;9.028;2023-02-26T02:47:46;4.85;;;3.55;;
8946;SDS011;4508;48.790;9.028;2023-02-26T02:50:18;3.33;;;3.03;;
8946;SDS011;4508;48.790;9.028;2023-02-26T02:52:49;3.50;;;3.20;;
8946;SDS011;4508;48.790;9.028;2023-02-26T02:55:23;4.28;;;3.50;;
8946;SDS011;4508;48.790;9.028;2023-02-26T02:57:54;3.47;;;3.17;;
8946;SDS011;4508;48.790;9.028;2023-02-26T03:00:26;3.50;;;3.20;;
8946;SDS011;4508;48.790;9.028;2023-02-26T03:02:58;3.95;;;3.50;;
8946;SDS011;4508;48.790;9.028;2023-02-26T03:05:31;4.18;;;3.70;;
8946;SDS011;4508;48.790;9.028;2023-02-26T03:07:59;4.47;;;3.10;;
8946;SDS011;4508;48.790;9.028;2023-02-26T03:10:29;4.00;;;3.50;;
8946;SDS011;4508;48.790;9.028;2023-02-26T03:12:57;3.88;;;3.58;;
8946;SDS011;4508;48.790;9.028;2023-02-26T03:15:25;3.75;;;3.17;;
8946;SDS011;4508;48.790;9.028;2023-02-26T03:18:01;4.30;;;3.33;;
8946;SDS011;4508;48.790;9.028;2023-02-26T03:20:37;3.70;;;3.40;;
8946;SDS011;4508;48.790;9.028;2023-02-26T03:23:16;4.40;;;4.05;;
8946;SDS011;4508;48.790;9.028;2023-02-26T03:25:48;3.40;;;3.10;;
8946;SDS011;4508;48.790;9.028;2023-02-26T03:28:17;4.00;;;3.55;;
8946;SDS011;4508;48.790;9.028;2023-02-26T03:30:52;5.68;;;3.80;;
8946;SDS011;4508;48.790;9.028;2023-02-26T03:33:26;4.35;;;3.42;;
8946;SDS011;4508;48.790;9.028;2023-02-26T03:35:56;3.60;;;3.30;;
8946;SDS011;4508;48.790;9.028;2023-02-26T03:38:29;4.07;;;3.53;;
8946;SDS011;4508;48.790;9.028;2023-02-26T03:41:01;4.28;;;3.88;;
8946;SDS011;4508;48.790;9.028;2023-02-26T03:43:33;3.70;;;3.30;;
8946;SDS011;4508;48.790;9.028;2023-02-26T03:46:05;3.95;;;3.65;;
8946;SDS011;4508;48.790;9.028;2023-02-26T03:48:37;4.20;;;3.80;;
8946;SDS011;4508;48.790;9.028;2023-02-26T03:51:05;3.95;;;3.55;;
8946;SDS011;4508;48.790;9.028;2023-02-26T03:53:37;4.18;;;3.22;;
8946;SDS011;4508;48.790;9.028;2023-02-26T03:56:10;4.47;;;3.75;;
8946;SDS011;4508;48.790;9.028;2023-02-26T03:58:42;3.80;;;3.50;;
8946;SDS011;4508;48.790;9.028;2023-02-26T04:01:10;4.43;;;3.85;;
8946;SDS011;4508;48.790;9.028;2023-02-26T04:03:44;4.35;;;3.50;;
8946;SDS011;4508;48.790;9.028;2023-02-26T04:06:15;3.83;;;3.45;;
8946;SDS011;4508;48.790;9.028;2023-02-26T04:08:42;4.22;;;3.72;;
8946;SDS011;4508;48.790;9.028;2023-02-26T04:11:10;5.22;;;4.05;;
8946;SDS011;4508;48.790;9.028;2023-02-26T04:13:41;3.60;;;3.28;;
8946;SDS011;4508;48.790;9.028;2023-02-26T04:16:08;4.78;;;3.63;;
8946;SDS011;4508;48.790;9.028;2023-02-26T04:18:34;5.30;;;3.45;;
8946;SDS011;4508;48.790;9.028;2023-02-26T04:21:03;3.60;;;3.20;;
8946;SDS011;4508;48.790;9.028;2023-02-26T04:23:30;4.80;;;3.80;;
8946;SDS011;4508;48.790;9.028;2023-02-26T04:25:56;5.18;;;3.92;;
8946;SDS011;4508;48.790;9.028;2023-02-26T04:28:23;4.17;;;3.60;;
8946;SDS011;4508;48.790;9.028;2023-02-26T04:30:50;4.23;;;3.83;;
8946;SDS011;4508;48.790;9.028;2023-02-26T04:33:17;4.90;;;4.40;;
8946;SDS011;4508;48.790;9.028;2023-02-26T04:35:43;5.97;;;3.53;;
8946;SDS011;4508;48.790;9.028;2023-02-26T04:38:11;4.32;;;3.50;;
8946;SDS011;4508;48.790;9.028;2023-02-26T04:40:38;5.05;;;4.03;;
8946;SDS011;4508;48.790;9.028;2023-02-26T04:43:05;4.20;;;3.45;;
8946;SDS011;4508;48.790;9.028;2023-02-26T04:45:31;4.20;;;3.80;;
8946;SDS011;4508;48.790;9.028;2023-02-26T04:47:58;4.10;;;3.70;;
8946;SDS011;4508;48.790;9.028;2023-02-26T04:50:25;4.55;;;4.15;;
8946;SDS011;4508;48.790;9.028;2023-02-26T04:52:51;4.40;;;3.70;;
8946;SDS011;4508;48.790;9.028;2023-02-26T04:55:19;4.88;;;3.88;;
8946;SDS011;4508;48.790;9.028;2023-02-26T04:57:46;4.30;;;3.90;;
8946;SDS011;4508;48.790;9.028;2023-02-26T05:00:13;3.88;;;3.50;;
8946;SDS011;4508;48.790;9.028;2023-02-26T05:02:41;4.57;;;3.70;;
8946;SDS011;4508;48.790;9.028;2023-02-26T05:05:08;4.30;;;3.90;;
8946;SDS011;4508;48.790;9.028;2023-02-26T05:07:35;3.92;;;3.42;;
8946;SDS011;4508;48.790;9.028;2023-02-26T05:10:02;5.50;;;3.70;;
8946;SDS011;4508;48.790;9.028;2023-02-26T05:12:30;4.25;;;3.72;;
8946;SDS011;4508;48.790;9.028;2023-02-26T05:14:57;4.70;;;3.40;;
8946;SDS011;4508;48.790;9.028;2023-02-26T05:17:24;4.40;;;3.40;;
8946;SDS011;4508;48.790;9.028;2023-02-26T05:19:51;4.80;;;3.85;;
8946;SDS011;4508;48.790;9.028;2023-02-26T05:22:17;5.03;;;4.05;;
8946;SDS011;4508;48.790;9.028;2023-02-26T05:24:44;4.65;;;3.80;;
8946;SDS011;4508;48.790;9.028;2023-02-26T05:27:11;4.32;;;3.85;;
8946;SDS011;4508;48.790;9.028;2023-02-26T05:29:39;5.43;;;3.80;;
8946;SDS011;4508;48.790;9.028;2023-02-26T05:32:08;5.53;;;3.95;;
8946;SDS011;4508;48.790;9.028;2023-02-26T05:34:35;4.65;;;3.85;;
8946;SDS011;4508;48.790;9.028;2023-02-26T05:37:02;5.00;;;4.50;;
8946;SDS011;4508;48.790;9.028;2023-02-26T05:39:29;5.53;;;4.03;;
8946;SDS011;4508;48.790;9.028;2023-02-26T05:41:55;4.68;;;4.20;;
8946;SDS011;4508;48.790;9.028;2023-02-26T05:44:22;4.68;;;4.25;;
8946;SDS011;4508;48.790;9.028;2023-02-26T05:46:50;4.82;;;3.80;;
8946;SDS011;4508;48.790;9.028;2023-02-26T05:49:17;4.28;;;3.80;;
8946;SDS011;4508;48.790;9.028;2023-02-26T05:51:44;5.03;;;4.22;;
8946;SDS011;4508;48.790;9.028;2023-02-26T05:54:10;4.97;;;4.45;;
8946;SDS011;4508;48.790;9.028;2023-02-26T05:56:37;4.95;;;4.22;;
8946;SDS011;4508;48.790;9.028;2023-02-26T05:59:03;5.00;;;4.30;;
8946;SDS011;4508;48.790;9.028;2023-02-26T06:01:30;6.03;;;4.53;;
8946;SDS011;4508;48.790;9.028;2023-02-26T06:03:58;4.68;;;3.88;;
8946;SDS011;4508;48.790;9.028;2023-02-26T06:06:25;4.60;;;4.20;;
8946;SDS011;4508;48.790;9.028;2023-02-26T06:08:51;5.28;;;4.68;;
8946;SDS011;4508;48.790;9.028;2023-02-26T06:11:18;5.63;;;3.90;;
8946;SDS011;4508;48.790;9.028;2023-02-26T06:13:45;6.50;;;4.53;;
8946;SDS011;4508;48.790;9.028;2023-02-26T06:16:12;5.13;;;4.57;;
8946;SDS011;4508;48.790;9.028;2023-02-26T06:18:38;4.40;;;4.00;;
8946;SDS011;4508;48.790;9.028;2023-02-26T06:21:06;4.53;;;4.13;;
8946;SDS011;4508;48.790;9.028;2023-02-26T06:23:33;5.15;;;4.57;;
8946;SDS011;4508;48.790;9.028;2023-02-26T06:26:00;4.57;;;4.07;;
8946;SDS011;4508;48.790;9.028;2023-02-26T06:28:27;5.50;;;4.90;;
8946;SDS011;4508;48.790;9.028;2023-02-26T06:30:54;5.43;;;4.72;;
8946;SDS011;4508;48.790;9.028;2023-02-26T06:33:20;4.80;;;4.30;;
8946;SDS011;4508;48.790;9.028;2023-02-26T06:35:47;5.47;;;4.13;;
8946;SDS011;4508;48.790;9.028;2023-02-26T06:38:16;4.25;;;3.85;;
8946;SDS011;4508;48.790;9.028;2023-02-26T06:40:43;6.05;;;4.68;;
8946;SDS011;4508;48.790;9.028;2023-02-26T06:43:10;4.90;;;4.20;;
8946;SDS011;4508;48.790;9.028;2023-02-26T06:45:37;5.85;;;4.50;;
8946;SDS011;4508;48.790;9.028;2023-02-26T06:48:04;7.05;;;4.47;;
8946;SDS011;4508;48.790;9.028;2023-02-26T06:50:30;6.03;;;5.43;;
8946;SDS011;4508;48.790;9.028;2023-02-26T06:52:57;4.85;;;4.35;;
8946;SDS011;4508;48.790;9.028;2023-02-26T06:55:25;5.03;;;4.30;;
8946;SDS011;4508;48.790;9.028;2023-02-26T06:57:52;5.78;;;3.97;;
8946;SDS011;4508;48.790;9.028;2023-02-26T07:00:19;5.27;;;4.00;;
8946;SDS011;4508;48.790;9.028;2023-02-26T07:02:46;4.85;;;4.15;;
8946;SDS011;4508;48.790;9.028;2023-02-26T07:05:13;4.25;;;3.85;;
8946;SDS011;4508;48.790;9.028;2023-02-26T07:07:40;4.68;;;3.92;;
8946;SDS011;4508;48.790;9.028;2023-02-26T07:10:07;5.07;;;4.47;;
8946;SDS011;4508;48.790;9.028;2023-02-26T07:12:36;5.00;;;3.78;;
8946;SDS011;4508;48.790;9.028;2023-02-26T07:15:04;4.63;;;3.83;;
8946;SDS011;4508;48.790;9.028;2023-02-26T07:17:31;5.05;;;4.10;;
8946;SDS011;4508;48.790;9.028;2023-02-26T07:19:58;5.20;;;4.68;;
8946;SDS011;4508;48.790;9.028;2023-02-26T07:22:30;4.35;;;3.70;;
8946;SDS011;4508;48.790;9.028;2023-02-26T07:24:56;5.22;;;4.15;;
8946;SDS011;4508;48.790;9.028;2023-02-26T07:27:24;4.55;;;4.15;;
8946;SDS011;4508;48.790;9.028;2023-02-26T07:29:52;4.90;;;3.87;;
8946;SDS011;4508;48.790;9.028;2023-02-26T07:32:19;4.90;;;3.70;;
8946;SDS011;4508;48.790;9.028;2023-02-26T07:34:45;5.25;;;4.20;;
8946;SDS011;4508;48.790;9.028;2023-02-26T07:37:12;5.25;;;4.00;;
8946;SDS011;4508;48.790;9.028;2023-02-26T07:39:39;4.30;;;3.88;;
8946;SDS011;4508;48.790;9.028;2023-02-26T07:42:06;5.53;;;4.20;;
8946;SDS011;4508;48.790;9.028;2023-02-26T07:44:33;5.38;;;4.53;;
8946;SDS011;4508;48.790;9.028;2023-02-26T07:47:01;5.45;;;3.63;;
8946;SDS011;4508;48.790;9.028;2023-02-26T07:49:27;5.32;;;3.83;;
8946;SDS011;4508;48.790;9.028;2023-02-26T07:51:54;4.15;;;3.72;;
8946;SDS011;4508;48.790;9.028;2023-02-26T07:54:21;4.25;;;3.63;;
8946;SDS011;4508;48.790;9.028;2023-02-26T07:56:47;4.33;;;3.63;;
8946;SDS011;4508;48.790;9.028;2023-02-26T07:59:14;4.25;;;3.50;;
8946;SDS011;4508;48.790;9.028;2023-02-26T08:01:41;3.97;;;3.42;;
8946;SDS011;4508;48.790;9.028;2023-02-26T08:04:09;4.67;;;4.00;;
8946;SDS011;4508;48.790;9.028;2023-02-26T08:06:35;4.13;;;3.70;;
8946;SDS011;4508;48.790;9.028;2023-02-26T08:09:02;5.05;;;4.22;;
8946;SDS011;4508;48.790;9.028;2023-02-26T08:11:29;4.82;;;3.95;;
8946;SDS011;4508;48.790;9.028;2023-02-26T08:13:56;6.20;;;4.30;;
8946;SDS011;4508;48.790;9.028;2023-02-26T08:16:23;5.65;;;3.45;;
8946;SDS011;4508;48.790;9.028;2023-02-26T08:18:50;4.88;;;3.88;;
8946;SDS011;4508;48.790;9.028;2023-02-26T08:21:18;5.18;;;3.92;;
8946;SDS011;4508;48.790;9.028;2023-02-26T08:23:45;4.40;;;4.10;;
8946;SDS011;4508;48.790;9.028;2023-02-26T08:26:12;4.38;;;3.67;;
8946;SDS011;4508;48.790;9.028;2023-02-26T08:28:40;4.83;;;3.37;;
8946;SDS011;4508;48.790;9.028;2023-02-26T08:31:06;5.43;;;4.05;;
8946;SDS011;4508;48.790;9.028;2023-02-26T08:33:33;5.00;;;3.75;;
8946;SDS011;4508;48.790;9.028;2023-02-26T08:36:00;4.40;;;3.20;;
8946;SDS011;4508;48.790;9.028;2023-02-26T08:38:28;4.68;;;3.40;;
8946;SDS011;4508;48.790;9.028;2023-02-26T08:40:54;4.72;;;3.20;;
8946;SDS011;4508;48.790;9.028;2023-02-26T08:43:22;3.80;;;3.40;;
8946;SDS011;4508;48.790;9.028;2023-02-26T08:45:50;3.95;;;3.20;;
8946;SDS011;4508;48.790;9.028;2023-02-26T08:48:18;3.88;;;3.40;;
8946;SDS011;4508;48.790;9.028;2023-02-26T08:50:45;3.50;;;3.20;;
8946;SDS011;4508;48.790;9.028;2023-02-26T08:53:12;3.90;;;3.50;;
8946;SDS011;4508;48.790;9.028;2023-02-26T08:55:40;4.10;;;3.07;;
8946;SDS011;4508;48.790;9.028;2023-02-26T08:58:08;3.78;;;3.00;;
8946;SDS011;4508;48.790;9.028;2023-02-26T09:00:35;3.88;;;3.40;;
8946;SDS011;4508;48.790;9.028;2023-02-26T09:03:02;3.35;;;3.05;;
8946;SDS011;4508;48.790;9.028;2023-02-26T09:05:29;3.63;;;3.22;;
8946;SDS011;4508;48.790;9.028;2023-02-26T09:07:55;3.83;;;3.35;;
8946;SDS011;4508;48.790;9.028;2023-02-26T09:10:22;3.38;;;2.78;;
8946;SDS011;4508;48.790;9.028;2023-02-26T09:12:50;4.35;;;3.10;;
8946;SDS011;4508;48.790;9.028;2023-02-26T09:15:17;3.70;;;3.13;;
8946;SDS011;4508;48.790;9.028;2023-02-26T09:17:44;3.60;;;2.80;;
8946;SDS011;4508;48.790;9.028;2023-02-26T09:20:12;3.50;;;2.92;;
8946;SDS011;4508;48.790;9.028;2023-02-26T09:22:40;3.15;;;2.85;;
8946;SDS011;4508;48.790;9.028;2023-02-26T09:25:07;3.63;;;3.05;;
8946;SDS011;4508;48.790;9.028;2023-02-26T09:27:34;3.20;;;2.72;;
8946;SDS011;4508;48.790;9.028;2023-02-26T09:30:02;3.50;;;3.08;;
8946;SDS011;4508;48.790;9.028;2023-02-26T09:32:30;3.63;;;3.20;;
8946;SDS011;4508;48.790;9.028;2023-02-26T09:34:57;3.50;;;2.80;;
8946;SDS011;4508;48.790;9.028;2023-02-26T09:37:24;3.00;;;2.70;;
8946;SDS011;4508;48.790;9.028;2023-02-26T09:39:50;3.50;;;3.20;;
8946;SDS011;4508;48.790;9.028;2023-02-26T09:42:21;3.63;;;3.30;;
8946;SDS011;4508;48.790;9.028;2023-02-26T09:44:54;2.80;;;2.60;;
8946;SDS011;4508;48.790;9.028;2023-02-26T09:47:25;3.50;;;2.90;;
8946;SDS011;4508;48.790;9.028;2023-02-26T09:49:55;3.72;;;3.22;;
8946;SDS011;4508;48.790;9.028;2023-02-26T09:52:30;5.90;;;3.45;;
8946;SDS011;4508;48.790;9.028;2023-02-26T09:55:02;3.40;;;2.97;;
8946;SDS011;4508;48.790;9.028;2023-02-26T09:57:35;4.15;;;3.22;;
8946;SDS011;4508;48.790;9.028;2023-02-26T10:00:06;3.80;;;3.47;;
8946;SDS011;4508;48.790;9.028;2023-02-26T10:02:52;4.32;;;3.60;;
8946;SDS011;4508;48.790;9.028;2023-02-26T10:05:27;3.50;;;3.05;;
8946;SDS011;4508;48.790;9.028;2023-02-26T10:07:59;3.40;;;3.10;;
8946;SDS011;4508;48.790;9.028;2023-02-26T10:10:32;3.40;;;3.10;;
8946;SDS011;4508;48.790;9.028;2023-02-26T10:13:09;3.97;;;3.60;;
8946;SDS011;4508;48.790;9.028;2023-02-26T10:15:45;3.15;;;2.78;;
8946;SDS011;4508;48.790;9.028;2023-02-26T10:18:17;3.05;;;2.80;;
8946;SDS011;4508;48.790;9.028;2023-02-26T10:20:49;3.70;;;3.40;;
8946;SDS011;4508;48.790;9.028;2023-02-26T10:23:22;3.63;;;3.33;;
8946;SDS011;4508;48.790;9.028;2023-02-26T10:25:53;4.22;;;3.00;;
8946;SDS011;4508;48.790;9.028;2023-02-26T10:28:32;3.75;;;3.17;;
8946;SDS011;4508;48.790;9.028;2023-02-26T10:31:12;3.85;;;3.53;;
8946;SDS011;4508;48.790;9.028;2023-02-26T10:33:48;3.95;;;3.55;;
8946;SDS011;4508;48.790;9.028;2023-02-26T10:36:23;4.17;;;3.10;;
8946;SDS011;4508;48.790;9.028;2023-02-26T10:38:56;3.78;;;3.40;;
8946;SDS011;4508;48.790;9.028;2023-02-26T10:41:27;3.90;;;3.50;;
8946;SDS011;4508;48.790;9.028;2023-02-26T10:43:57;4.25;;;3.85;;
8946;SDS011;4508;48.790;9.028;2023-02-26T10:46:33;3.70;;;3.30;;
8946;SDS011;4508;48.790;9.028;2023-02-26T10:49:14;3.83;;;3.40;;
8946;SDS011;4508;48.790;9.028;2023-02-26T10:52:00;4.32;;;3.50;;
8946;SDS011;4508;48.790;9.028;2023-02-26T10:54:36;3.80;;;3.50;;
8946;SDS011;4508;48.790;9.028;2023-02-26T10:57:06;3.53;;;3.22;;
8946;SDS011;4508;48.790;9.028;2023-02-26T10:59:39;3.40;;;3.10;;
8946;SDS011;4508;48.790;9.028;2023-02-26T11:02:09;3.47;;;3.17;;
8946;SDS011;4508;48.790;9.028;2023-02-26T11:04:59;3.70;;;3.30;;
8946;SDS011;4508;48.790;9.028;2023-02-26T11:07:26;3.40;;;3.08;;
8946;SDS011;4508;48.790;9.028;2023-02-26T11:09:55;2.92;;;2.72;;
8946;SDS011;4508;48.790;9.028;2023-02-26T11:12:23;2.72;;;2.53;;
8946;SDS011;4508;48.790;9.028;2023-02-26T11:14:51;3.15;;;2.95;;
8946;SDS011;4508;48.790;9.028;2023-02-26T11:17:19;2.50;;;2.30;;
8946;SDS011;4508;48.790;9.028;2023-02-26T11:19:52;3.47;;;3.00;;
8946;SDS011;4508;48.790;9.028;2023-02-26T11:22:26;3.20;;;2.97;;
8946;SDS011;4508;48.790;9.028;2023-02-26T11:24:55;3.00;;;2.80;;
8946;SDS011;4508;48.790;9.028;2023-02-26T11:27:24;2.83;;;2.55;;
8946;SDS011;4508;48.790;9.028;2023-02-26T11:29:53;2.70;;;2.50;;
8946;SDS011;4508;48.790;9.028;2023-02-26T11:32:23;3.08;;;2.78;;
8946;SDS011;4508;48.790;9.028;2023-02-26T11:34:55;3.05;;;2.85;;
8946;SDS011;4508;48.790;9.028;2023-02-26T11:37:23;2.60;;;2.40;;
8946;SDS011;4508;48.790;9.028;2023-02-26T11:39:55;2.97;;;2.78;;
8946;SDS011;4508;48.790;9.028;2023-02-26T11:42:23;3.15;;;2.88;;
8946;SDS011;4508;48.790;9.028;2023-02-26T11:44:50;2.78;;;2.58;;
8946;SDS011;4508;48.790;9.028;2023-02-26T11:47:18;2.63;;;2.43;;
8946;SDS011;4508;48.790;9.028;2023-02-26T11:49:49;2.50;;;2.30;;
8946;SDS011;4508;48.790;9.028;2023-02-26T11:52:19;2.60;;;2.40;;
8946;SDS011;4508;48.790;9.028;2023-02-26T11:54:49;2.87;;;2.67;;
8946;SDS011;4508;48.790;9.028;2023-02-26T11:57:20;2.10;;;2.00;;
8946;SDS011;4508;48.790;9.028;2023-02-26T11:59:50;2.63;;;2.42;;
8946;SDS011;4508;48.790;9.028;2023-02-26T12:02:19;2.70;;;2.50;;
8946;SDS011;4508;48.790;9.028;2023-02-26T12:04:48;2.90;;;2.70;;
8946;SDS011;4508;48.790;9.028;2023-02-26T12:07:17;2.00;;;1.90;;
8946;SDS011;4508;48.790;9.028;2023-02-26T12:09:46;2.10;;;2.00;;
8946;SDS011;4508;48.790;9.028;2023-02-26T12:12:18;2.20;;;2.10;;
8946;SDS011;4508;48.790;9.028;2023-02-26T12:15:00;2.53;;;2.33;;
8946;SDS011;4508;48.790;9.028;2023-02-26T12:20:31;2.40;;;2.20;;
8946;SDS011;4508;48.790;9.028;2023-02-26T12:23:10;2.28;;;2.17;;
8946;SDS011;4508;48.790;9.028;2023-02-26T12:25:49;2.25;;;2.15;;
8946;SDS011;4508;48.790;9.028;2023-02-26T12:28:43;2.60;;;2.40;;
8946;SDS011;4508;48.790;9.028;2023-02-26T12:31:34;2.50;;;2.30;;
8946;SDS011;4508;48.790;9.028;2023-02-26T12:34:27;2.40;;;2.30;;
8946;SDS011;4508;48.790;9.028;2023-02-26T12:37:19;2.00;;;1.90;;
8946;SDS011;4508;48.790;9.028;2023-02-26T12:40:02;2.47;;;2.28;;
8946;SDS011;4508;48.790;9.028;2023-02-26T12:42:40;2.30;;;2.20;;
8946;SDS011;4508;48.790;9.028;2023-02-26T12:45:19;2.55;;;2.45;;
8946;SDS011;4508;48.790;9.028;2023-02-26T12:48:12;2.90;;;2.70;;
8946;SDS011;4508;48.790;9.028;2023-02-26T12:51:00;2.70;;;2.50;;
8946;SDS011;4508;48.790;9.028;2023-02-26T12:56:30;2.60;;;2.40;;
8946;SDS011;4508;48.790;9.028;2023-02-26T12:59:12;2.45;;;2.25;;
8946;SDS011;4508;48.790;9.028;2023-02-26T13:02:08;2.28;;;2.10;;
8946;SDS011;4508;48.790;9.028;2023-02-26T13:05:00;2.33;;;2.20;;
8946;SDS011;4508;48.790;9.028;2023-02-26T13:10:28;2.60;;;2.40;;
8946;SDS011;4508;48.790;9.028;2023-02-26T13:16:09;2.00;;;1.90;;
8946;SDS011;4508;48.790;9.028;2023-02-26T13:18:47;2.70;;;1.80;;
8946;SDS011;4508;48.790;9.028;2023-02-26T13:21:18;2.05;;;1.95;;
8946;SDS011;4508;48.790;9.028;2023-02-26T13:23:50;2.60;;;2.40;;
8946;SDS011;4508;48.790;9.028;2023-02-26T13:26:20;2.42;;;2.22;;
8946;SDS011;4508;48.790;9.028;2023-02-26T13:28:49;2.00;;;1.90;;
8946;SDS011;4508;48.790;9.028;2023-02-26T13:31:20;2.20;;;2.10;;
8946;SDS011;4508;48.790;9.028;2023-02-26T13:33:51;2.30;;;2.10;;
8946;SDS011;4508;48.790;9.028;2023-02-26T13:36:21;2.30;;;2.10;;
8946;SDS011;4508;48.790;9.028;2023-02-26T13:38:53;2.90;;;2.70;;
8946;SDS011;4508;48.790;9.028;2023-02-26T13:41:33;2.97;;;2.78;;
8946;SDS011;4508;48.790;9.028;2023-02-26T13:44:11;2.20;;;2.10;;
8946;SDS011;4508;48.790;9.028;2023-02-26T13:46:49;2.30;;;2.10;;
8946;SDS011;4508;48.790;9.028;2023-02-26T13:49:25;2.50;;;2.30;;
8946;SDS011;4508;48.790;9.028;2023-02-26T13:51:56;2.30;;;2.20;;
8946;SDS011;4508;48.790;9.028;2023-02-26T13:54:42;2.30;;;2.10;;
8946;SDS011;4508;48.790;9.028;2023-02-26T13:57:21;2.20;;;2.10;;
8946;SDS011;4508;48.790;9.028;2023-02-26T13:59:53;2.25;;;2.08;;
8946;SDS011;4508;48.790;9.028;2023-02-26T14:02:34;2.28;;;2.10;;
8946;SDS011;4508;48.790;9.028;2023-02-26T14:05:26;2.13;;;2.03;;
8946;SDS011;4508;48.790;9.028;2023-02-26T14:08:18;2.40;;;2.20;;
8946;SDS011;4508;48.790;9.028;2023-02-26T14:10:53;2.60;;;2.40;;
8946;SDS011;4508;48.790;9.028;2023-02-26T14:13:22;2.80;;;2.60;;
8946;SDS011;4508;48.790;9.028;2023-02-26T14:15:58;2.20;;;2.00;;
8946;SDS011;4508;48.790;9.028;2023-02-26T14:18:30;2.73;;;2.53;;
8946;SDS011;4508;48.790;9.028;2023-02-26T14:24:04;2.05;;;1.90;;
8946;SDS011;4508;48.790;9.028;2023-02-26T14:26:38;2.17;;;2.00;;
8946;SDS011;4508;48.790;9.028;2023-02-26T14:29:13;2.00;;;1.90;;
8946;SDS011;4508;48.790;9.028;2023-02-26T14:31:45;2.35;;;2.15;;
8946;SDS011;4508;48.790;9.028;2023-02-26T14:34:21;1.88;;;1.77;;
8946;SDS011;4508;48.790;9.028;2023-02-26T14:36:52;2.00;;;1.90;;
8946;SDS011;4508;48.790;9.028;2023-02-26T14:39:26;2.15;;;2.00;;
8946;SDS011;4508;48.790;9.028;2023-02-26T14:41:57;2.50;;;2.10;;
8946;SDS011;4508;48.790;9.028;2023-02-26T14:44:27;2.05;;;1.95;;
8946;SDS011;4508;48.790;9.028;2023-02-26T14:46:56;2.08;;;1.98;;
8946;SDS011;4508;48.790;9.028;2023-02-26T14:49:25;1.70;;;1.60;;
8946;SDS011;4508;48.790;9.028;2023-02-26T14:52:18;1.90;;;1.80;;
8946;SDS011;4508;48.790;9.028;2023-02-26T14:55:12;2.10;;;2.00;;
8946;SDS011;4508;48.790;9.028;2023-02-26T14:57:59;1.90;;;1.80;;
8946;SDS011;4508;48.790;9.028;2023-02-26T15:00:35;2.25;;;2.15;;
8946;SDS011;4508;48.790;9.028;2023-02-26T15:03:18;2.13;;;2.03;;
8946;SDS011;4508;48.790;9.028;2023-02-26T15:06:02;2.15;;;2.05;;
8946;SDS011;4508;48.790;9.028;2023-02-26T15:08:45;1.90;;;1.80;;
8946;SDS011;4508;48.790;9.028;2023-02-26T15:11:27;1.80;;;1.70;;
8946;SDS011;4508;48.790;9.028;2023-02-26T15:14:16;1.90;;;1.80;;
8946;SDS011;4508;48.790;9.028;2023-02-26T15:17:01;2.13;;;2.03;;
8946;SDS011;4508;48.790;9.028;2023-02-26T15:19:39;2.00;;;1.90;;
8946;SDS011;4508;48.790;9.028;2023-02-26T15:22:23;2.40;;;2.20;;
8946;SDS011;4508;48.790;9.028;2023-02-26T15:24:59;2.10;;;2.00;;
8946;SDS011;4508;48.790;9.028;2023-02-26T15:27:28;1.95;;;1.85;;
8946;SDS011;4508;48.790;9.028;2023-02-26T15:29:56;2.03;;;1.92;;
8946;SDS011;4508;48.790;9.028;2023-02-26T15:32:25;2.25;;;1.92;;
8946;SDS011;4508;48.790;9.028;2023-02-26T15:34:54;2.40;;;2.20;;
8946;SDS011;4508;48.790;9.028;2023-02-26T15:37:25;2.70;;;2.50;;
8946;SDS011;4508;48.790;9.028;2023-02-26T15:39:57;2.33;;;2.13;;
8946;SDS011;4508;48.790;9.028;2023-02-26T15:42:26;2.77;;;2.57;;
8946;SDS011;4508;48.790;9.028;2023-02-26T15:44:58;2.53;;;2.33;;
8946;SDS011;4508;48.790;9.028;2023-02-26T15:47:26;2.40;;;2.20;;
8946;SDS011;4508;48.790;9.028;2023-02-26T15:49:54;2.50;;;2.30;;
8946;SDS011;4508;48.790;9.028;2023-02-26T15:52:23;2.30;;;2.20;;
8946;SDS011;4508;48.790;9.028;2023-02-26T15:54:52;2.17;;;2.08;;
8946;SDS011;4508;48.790;9.028;2023-02-26T15:57:21;2.60;;;2.40;;
8946;SDS011;4508;48.790;9.028;2023-02-26T15:59:52;2.67;;;2.47;;